createdAt,value
2023-03-26T00:00:56.864Z,9.69
2023-03-26T00:03:37.508Z,9.66
2023-03-26T00:06:12.861Z,9.64
2023-03-26T00:08:41.961Z,9.62
2023-03-26T00:11:10.848Z,9.61
2023-03-26T00:13:39.404Z,9.60
2023-03-26T00:16:07.824Z,9.59
2023-03-26T00:18:35.776Z,9.58
2023-03-26T00:21:05.536Z,9.56
2023-03-26T00:23:35.316Z,9.54
2023-03-26T00:26:03.687Z,9.52
2023-03-26T00:28:31.764Z,9.50
2023-03-26T00:31:01.243Z,9.47
2023-03-26T00:33:31.469Z,9.43
2023-03-26T00:36:03.921Z,9.41
2023-03-26T00:38:39.113Z,9.39
2023-03-26T00:41:08.405Z,9.38
2023-03-26T00:43:36.803Z,9.43
2023-03-26T00:46:05.286Z,9.41
2023-03-26T00:48:44.427Z,9.41
2023-03-26T00:51:15.755Z,9.38
2023-03-26T00:53:45.327Z,9.39
2023-03-26T00:56:14.046Z,9.43
2023-03-26T00:58:42.005Z,9.43
2023-03-26T01:01:13.955Z,9.41
2023-03-26T01:03:50.375Z,9.33
2023-03-26T01:06:32.948Z,9.33
2023-03-26T01:09:07.484Z,9.33
2023-03-26T01:11:36.054Z,9.34
2023-03-26T01:14:10.124Z,9.33
2023-03-26T01:16:46.124Z,9.25
2023-03-26T01:19:18.312Z,9.21
2023-03-26T01:21:47.486Z,9.16
2023-03-26T01:24:15.619Z,9.15
2023-03-26T01:26:43.433Z,9.09
2023-03-26T01:29:18.827Z,9.07
2023-03-26T01:31:55.552Z,9.02
2023-03-26T01:34:30.823Z,9.04
2023-03-26T01:37:01.819Z,9.02
2023-03-26T01:39:39.011Z,8.99
2023-03-26T01:42:11.300Z,8.96
2023-03-26T01:44:45.063Z,8.98
2023-03-26T01:47:13.590Z,8.97
2023-03-26T01:49:41.544Z,9.01
2023-03-26T01:52:14.942Z,9.04
2023-03-26T01:54:43.225Z,9.06
2023-03-26T01:57:38.130Z,9.09
2023-03-26T02:00:15.278Z,9.07
2023-03-26T02:03:18.084Z,9.12
2023-03-26T02:05:58.437Z,9.14
2023-03-26T02:08:36.032Z,9.15
2023-03-26T02:11:11.418Z,9.16
2023-03-26T02:13:41.516Z,9.18
2023-03-26T02:16:14.343Z,9.18
2023-03-26T02:18:43.495Z,9.18
2023-03-26T02:21:12.422Z,9.19
2023-03-26T02:23:47.069Z,9.19
2023-03-26T02:26:16.711Z,9.20
2023-03-26T02:29:20.637Z,9.21
2023-03-26T02:31:49.446Z,9.21
2023-03-26T02:34:17.693Z,9.23
2023-03-26T02:36:52.461Z,9.24
2023-03-26T02:39:21.115Z,9.24
2023-03-26T02:41:56.512Z,9.21
2023-03-26T02:44:24.820Z,9.20
2023-03-26T02:46:58.585Z,9.19
2023-03-26T02:49:47.279Z,9.19
2023-03-26T02:52:21.803Z,9.19
2023-03-26T02:54:50.596Z,9.19
2023-03-26T02:57:21.226Z,9.18
2023-03-26T03:00:16.017Z,9.18
2023-03-26T03:02:48.490Z,9.16
2023-03-26T03:05:32.910Z,9.16
2023-03-26T03:08:19.947Z,9.15
2023-03-26T03:11:25.133Z,9.14
2023-03-26T03:13:54.030Z,9.13
2023-03-26T03:16:27.302Z,9.11
2023-03-26T03:18:57.999Z,9.10
2023-03-26T03:21:31.228Z,9.07
2023-03-26T03:23:59.992Z,9.03
2023-03-26T03:26:30.803Z,9.01
2023-03-26T03:29:03.463Z,8.98
2023-03-26T03:31:31.932Z,8.95
2023-03-26T03:34:04.064Z,8.90
2023-03-26T03:36:33.887Z,8.86
2023-03-26T03:39:07.030Z,8.83
2023-03-26T03:41:35.087Z,8.81
2023-03-26T03:44:04.451Z,8.77
2023-03-26T03:46:33.172Z,8.72
2023-03-26T03:49:01.363Z,8.68
2023-03-26T03:51:33.382Z,8.63
2023-03-26T03:54:03.950Z,8.57
2023-03-26T03:56:49.201Z,8.51
2023-03-26T03:59:22.859Z,8.47
2023-03-26T04:01:51.376Z,8.44
2023-03-26T04:04:33.118Z,8.32
2023-03-26T04:07:06.556Z,8.21
2023-03-26T04:09:53.165Z,8.25
2023-03-26T04:12:22.169Z,8.25
2023-03-26T04:14:59.246Z,8.25
2023-03-26T04:17:27.257Z,8.27
2023-03-26T04:19:56.408Z,8.28
2023-03-26T04:22:34.772Z,8.26
2023-03-26T04:25:05.469Z,8.28
2023-03-26T04:27:41.831Z,8.31
2023-03-26T04:30:33.962Z,8.34
2023-03-26T04:33:10.569Z,8.37
2023-03-26T04:35:41.780Z,8.38
2023-03-26T04:38:11.382Z,8.36
2023-03-26T04:40:43.354Z,8.35
2023-03-26T04:43:24.837Z,8.36
2023-03-26T04:45:53.547Z,8.37
2023-03-26T04:48:23.022Z,8.38
2023-03-26T04:50:51.305Z,8.37
2023-03-26T04:53:24.314Z,8.36
2023-03-26T04:56:18.720Z,8.30
2023-03-26T04:59:00.832Z,8.27
2023-03-26T05:01:30.939Z,8.26
2023-03-26T05:03:59.773Z,8.25
2023-03-26T05:06:28.706Z,8.26
2023-03-26T05:08:56.754Z,8.27
2023-03-26T05:11:58.508Z,8.28
2023-03-26T05:14:26.397Z,8.27
2023-03-26T05:16:55.088Z,8.25
2023-03-26T05:19:23.137Z,8.24
2023-03-26T05:21:51.626Z,8.23
2023-03-26T05:24:20.105Z,8.23
2023-03-26T05:26:48.373Z,8.23
2023-03-26T05:29:17.484Z,8.22
2023-03-26T05:31:49.233Z,8.22
2023-03-26T05:34:17.198Z,8.20
2023-03-26T05:36:45.180Z,8.23
2023-03-26T05:39:30.080Z,8.26
2023-03-26T05:42:16.742Z,8.32
2023-03-26T05:44:58.101Z,8.40
2023-03-26T05:47:28.638Z,8.48
2023-03-26T05:49:57.043Z,8.54
2023-03-26T05:52:26.033Z,8.58
2023-03-26T05:55:18.606Z,8.58
2023-03-26T05:58:25.874Z,8.57
2023-03-26T06:01:17.226Z,8.57
2023-03-26T06:04:18.441Z,8.59
2023-03-26T06:06:52.971Z,8.64
2023-03-26T06:09:21.954Z,8.69
2023-03-26T06:11:50.544Z,8.72
2023-03-26T06:14:18.776Z,8.77
2023-03-26T06:17:11.671Z,8.82
2023-03-26T06:20:15.582Z,8.87
2023-03-26T06:22:46.721Z,8.91
2023-03-26T06:25:23.085Z,8.91
2023-03-26T06:28:10.717Z,8.97
2023-03-26T06:30:51.644Z,9.03
2023-03-26T06:33:38.200Z,9.10
2023-03-26T06:36:06.923Z,9.19
2023-03-26T06:38:34.968Z,9.28
2023-03-26T06:41:06.317Z,9.20
2023-03-26T06:43:53.110Z,9.36
2023-03-26T06:46:41.522Z,9.42
2023-03-26T06:49:32.681Z,9.53
2023-03-26T06:52:19.598Z,9.55
2023-03-26T06:54:59.851Z,9.63
2023-03-26T06:57:51.473Z,9.71
2023-03-26T07:00:40.471Z,9.74
2023-03-26T07:03:26.935Z,9.82
2023-03-26T07:06:13.521Z,9.89
2023-03-26T07:08:59.716Z,10.04
2023-03-26T07:11:39.800Z,10.18
2023-03-26T07:14:30.521Z,10.28
2023-03-26T07:17:11.370Z,10.36
2023-03-26T07:19:52.866Z,10.53
2023-03-26T07:22:25.229Z,10.71
2023-03-26T07:25:05.596Z,10.85
2023-03-26T07:27:48.941Z,10.92
2023-03-26T07:30:32.760Z,10.98
2023-03-26T07:33:31.981Z,11.06
2023-03-26T07:36:40.257Z,11.20
2023-03-26T07:39:46.763Z,11.33
2023-03-26T07:42:33.966Z,11.26
2023-03-26T07:45:41.731Z,11.15
2023-03-26T07:48:27.412Z,11.11
2023-03-26T07:51:08.126Z,11.22
2023-03-26T07:54:05.696Z,11.29
2023-03-26T07:57:11.939Z,11.28
2023-03-26T08:00:16.304Z,11.34
2023-03-26T08:03:05.961Z,11.42
2023-03-26T08:06:02.923Z,11.58
2023-03-26T08:09:04.430Z,11.82
2023-03-26T08:11:44.311Z,11.98
2023-03-26T08:14:24.770Z,12.02
2023-03-26T08:16:52.673Z,12.04
2023-03-26T08:19:37.754Z,12.24
2023-03-26T08:22:12.154Z,12.42
2023-03-26T08:25:01.523Z,12.58
2023-03-26T08:27:29.788Z,12.57
2023-03-26T08:30:04.840Z,12.64
2023-03-26T08:32:33.017Z,12.70
2023-03-26T08:35:01.271Z,12.71
2023-03-26T08:37:29.436Z,12.59
2023-03-26T08:39:57.707Z,12.61
2023-03-26T08:42:36.086Z,12.75
2023-03-26T08:45:36.352Z,12.86
2023-03-26T08:48:16.469Z,12.90
2023-03-26T08:50:51.767Z,12.90
2023-03-26T08:53:38.820Z,12.61
2023-03-26T08:56:35.128Z,12.37
2023-03-26T08:59:21.710Z,12.43
2023-03-26T09:01:55.872Z,12.17
2023-03-26T09:04:43.019Z,12.15
2023-03-26T09:07:36.523Z,12.09
2023-03-26T09:10:19.788Z,12.09
2023-03-26T09:12:50.665Z,12.21
2023-03-26T09:15:22.150Z,12.55
2023-03-26T09:18:02.412Z,12.57
2023-03-26T09:20:56.895Z,12.70
2023-03-26T09:23:52.783Z,12.86
2023-03-26T09:26:23.587Z,12.62
2023-03-26T09:28:51.453Z,12.76
2023-03-26T09:31:38.270Z,13.00
2023-03-26T09:34:12.329Z,13.31
2023-03-26T09:36:46.461Z,13.58
2023-03-26T09:39:35.001Z,13.77
2023-03-26T09:42:16.685Z,13.94
2023-03-26T09:44:54.684Z,14.07
2023-03-26T09:47:22.792Z,14.25
2023-03-26T09:49:53.473Z,14.35
2023-03-26T09:52:21.370Z,14.43
2023-03-26T09:55:01.633Z,14.43
2023-03-26T09:57:29.867Z,14.50
2023-03-26T10:00:13.429Z,14.47
2023-03-26T10:03:00.091Z,14.53
2023-03-26T10:05:47.152Z,14.62
2023-03-26T10:08:32.224Z,14.75
2023-03-26T10:11:03.674Z,14.76
2023-03-26T10:13:36.865Z,14.74
2023-03-26T10:16:04.938Z,14.70
2023-03-26T10:18:56.781Z,14.63
2023-03-26T10:21:39.684Z,14.54
2023-03-26T10:24:10.735Z,14.48
2023-03-26T10:26:38.986Z,14.48
2023-03-26T10:29:20.495Z,14.49
2023-03-26T10:31:58.805Z,14.26
2023-03-26T10:34:45.936Z,14.16
2023-03-26T10:37:25.627Z,13.99
2023-03-26T10:39:59.817Z,13.80
2023-03-26T10:42:43.209Z,13.62
2023-03-26T10:45:29.608Z,13.73
2023-03-26T10:48:00.457Z,13.95
2023-03-26T10:50:43.677Z,14.07
2023-03-26T10:53:24.730Z,14.04
2023-03-26T10:55:55.387Z,14.13
2023-03-26T10:58:23.463Z,14.32
2023-03-26T11:01:00.950Z,14.49
2023-03-26T11:03:52.677Z,14.77
2023-03-26T11:06:36.003Z,14.97
2023-03-26T11:09:33.681Z,14.86
2023-03-26T11:12:27.486Z,14.43
2023-03-26T11:15:15.799Z,14.27
2023-03-26T11:17:46.654Z,14.33
2023-03-26T11:20:14.508Z,14.53
2023-03-26T11:22:42.473Z,14.82
2023-03-26T11:25:26.435Z,15.16
2023-03-26T11:28:08.742Z,15.42
2023-03-26T11:30:57.123Z,15.66
2023-03-26T11:33:32.902Z,15.92
2023-03-26T11:36:03.511Z,15.90
2023-03-26T11:38:37.360Z,15.86
2023-03-26T11:41:12.494Z,15.76
2023-03-26T11:44:07.352Z,15.60
2023-03-26T11:46:38.989Z,15.52
2023-03-26T11:49:11.231Z,15.52
2023-03-26T11:51:40.017Z,15.48
2023-03-26T11:54:10.952Z,15.43
2023-03-26T11:57:04.457Z,15.44
2023-03-26T11:59:55.562Z,15.49
2023-03-26T12:02:32.668Z,15.45
2023-03-26T12:05:12.372Z,15.52
2023-03-26T12:07:59.690Z,15.78
2023-03-26T12:10:31.228Z,16.11
2023-03-26T12:13:01.038Z,16.33
2023-03-26T12:15:31.679Z,16.37
2023-03-26T12:18:17.762Z,16.26
2023-03-26T12:20:45.841Z,16.21
2023-03-26T12:23:33.583Z,16.11
2023-03-26T12:26:05.839Z,16.00
2023-03-26T12:28:34.017Z,15.95
2023-03-26T12:31:03.132Z,16.13
2023-03-26T12:33:35.830Z,16.15
2023-03-26T12:36:30.494Z,16.38
2023-03-26T12:40:06.038Z,17.01
2023-03-26T12:44:42.198Z,17.72
2023-03-26T12:44:58.773Z,18.48
2023-03-26T12:47:57.979Z,18.71
2023-03-26T12:50:34.553Z,18.42
2023-03-26T12:53:11.831Z,18.29
2023-03-26T12:55:42.596Z,18.26
2023-03-26T12:58:20.199Z,18.02
2023-03-26T13:00:48.157Z,17.81
2023-03-26T13:03:34.597Z,18.06
2023-03-26T13:06:02.535Z,18.49
2023-03-26T13:08:39.749Z,18.64
2023-03-26T13:11:26.502Z,18.54
2023-03-26T13:13:57.372Z,19.00
2023-03-26T13:16:40.600Z,19.66
2023-03-26T13:19:16.135Z,20.31
2023-03-26T13:21:51.731Z,20.80
2023-03-26T13:24:46.901Z,21.06
2023-03-26T13:27:18.300Z,20.87
2023-03-26T13:30:15.522Z,20.89
2023-03-26T13:32:46.562Z,21.43
2023-03-26T13:35:29.025Z,21.80
2023-03-26T13:38:11.465Z,22.11
2023-03-26T13:40:58.354Z,21.94
2023-03-26T13:43:41.097Z,21.80
2023-03-26T13:46:14.935Z,21.76
2023-03-26T13:48:47.117Z,21.83
2023-03-26T13:51:21.797Z,22.07
2023-03-26T13:53:56.274Z,21.68
2023-03-26T13:56:29.099Z,21.75
2023-03-26T13:59:07.822Z,22.14
2023-03-26T14:01:41.434Z,22.55
2023-03-26T14:04:32.326Z,23.00
2023-03-26T14:07:00.304Z,23.38
2023-03-26T14:09:34.927Z,23.64
2023-03-26T14:12:21.288Z,23.85
2023-03-26T14:14:50.012Z,24.20
2023-03-26T14:17:36.456Z,24.09
2023-03-26T14:20:05.509Z,23.99
2023-03-26T14:22:37.372Z,24.04
2023-03-26T14:25:11.584Z,24.30
2023-03-26T14:27:58.080Z,24.43
2023-03-26T14:30:42.434Z,24.38
2023-03-26T14:33:27.496Z,24.13
2023-03-26T14:36:04.777Z,23.85
2023-03-26T14:38:33.934Z,23.48
2023-03-26T14:41:06.272Z,23.17
2023-03-26T14:43:37.312Z,22.84
2023-03-26T14:46:08.346Z,22.49
2023-03-26T14:48:54.855Z,22.17
2023-03-26T14:51:41.052Z,21.69
2023-03-26T14:54:12.846Z,21.35
2023-03-26T14:56:43.866Z,21.17
2023-03-26T14:59:31.486Z,20.96
2023-03-26T15:02:11.660Z,20.64
2023-03-26T15:04:52.132Z,20.41
2023-03-26T15:07:20.029Z,20.25
2023-03-26T15:09:53.702Z,20.31
2023-03-26T15:12:33.418Z,20.43
2023-03-26T15:15:19.920Z,20.95
2023-03-26T15:17:53.875Z,21.39
2023-03-26T15:20:40.736Z,21.75
2023-03-26T15:23:08.633Z,21.87
2023-03-26T15:25:57.051Z,22.03
2023-03-26T15:28:37.108Z,22.20
2023-03-26T15:31:23.833Z,22.34
2023-03-26T15:33:54.767Z,22.21
2023-03-26T15:36:22.837Z,22.03
2023-03-26T15:38:54.185Z,21.78
2023-03-26T15:41:28.299Z,21.58
2023-03-26T15:44:22.957Z,21.50
2023-03-26T15:46:51.670Z,21.55
2023-03-26T15:49:19.547Z,21.60
2023-03-26T15:51:54.567Z,21.66
2023-03-26T15:54:41.386Z,21.71
2023-03-26T15:57:21.430Z,21.79
2023-03-26T15:59:57.803Z,21.76
2023-03-26T16:02:34.966Z,21.84
2023-03-26T16:05:36.968Z,21.79
2023-03-26T16:08:15.003Z,21.37
2023-03-26T16:10:47.332Z,21.09
2023-03-26T16:13:30.767Z,21.07
2023-03-26T16:16:07.045Z,20.93
2023-03-26T16:18:37.290Z,20.59
2023-03-26T16:21:31.594Z,20.21
2023-03-26T16:24:03.135Z,19.76
2023-03-26T16:26:53.096Z,19.35
2023-03-26T16:29:26.902Z,18.94
2023-03-26T16:31:57.846Z,18.49
2023-03-26T16:34:27.899Z,18.19
2023-03-26T16:36:58.670Z,17.90
2023-03-26T16:39:40.772Z,17.65
2023-03-26T16:42:21.036Z,17.38
2023-03-26T16:45:00.248Z,17.14
2023-03-26T16:47:28.351Z,16.91
2023-03-26T16:50:15.160Z,16.71
2023-03-26T16:52:46.502Z,16.51
2023-03-26T16:55:34.658Z,16.33
2023-03-26T16:58:15.227Z,16.13
2023-03-26T17:00:43.325Z,15.95
2023-03-26T17:03:17.713Z,15.79
2023-03-26T17:05:56.818Z,15.61
2023-03-26T17:08:36.555Z,15.43
2023-03-26T17:11:22.192Z,15.24
2023-03-26T17:14:03.868Z,15.03
2023-03-26T17:16:54.851Z,14.88
2023-03-26T17:19:25.791Z,14.68
2023-03-26T17:22:04.823Z,14.51
2023-03-26T17:24:40.805Z,14.37
2023-03-26T17:27:40.183Z,14.17
2023-03-26T17:30:30.883Z,14.00
2023-03-26T17:33:00.750Z,13.79
2023-03-26T17:35:45.331Z,13.62
2023-03-26T17:38:16.402Z,13.44
2023-03-26T17:40:47.967Z,13.31
2023-03-26T17:43:35.995Z,13.18
2023-03-26T17:46:23.264Z,13.06
2023-03-26T17:49:03.376Z,12.96
2023-03-26T17:51:46.595Z,12.87
2023-03-26T17:54:20.859Z,12.76
2023-03-26T17:56:50.652Z,12.65
2023-03-26T17:59:24.031Z,12.57
2023-03-26T18:01:55.540Z,12.49
2023-03-26T18:04:37.806Z,12.41
2023-03-26T18:07:18.562Z,12.36
2023-03-26T18:09:52.766Z,12.32
2023-03-26T18:12:23.820Z,12.28
2023-03-26T18:14:55.667Z,12.22
2023-03-26T18:17:24.375Z,12.11
2023-03-26T18:19:53.867Z,12.03
2023-03-26T18:22:26.790Z,11.93
2023-03-26T18:24:59.729Z,11.88
2023-03-26T18:27:37.239Z,11.82
2023-03-26T18:30:18.925Z,11.77
2023-03-26T18:32:51.022Z,11.73
2023-03-26T18:35:20.823Z,11.66
2023-03-26T18:37:50.104Z,11.55
2023-03-26T18:40:20.216Z,11.47
2023-03-26T18:42:58.755Z,11.30
2023-03-26T18:45:26.808Z,10.99
2023-03-26T18:47:57.486Z,10.85
2023-03-26T18:50:27.455Z,10.82
2023-03-26T18:53:00.467Z,10.73
2023-03-26T18:55:29.533Z,10.66
2023-03-26T18:57:57.914Z,10.62
2023-03-26T19:00:28.653Z,10.60
2023-03-26T19:03:01.888Z,10.57
2023-03-26T19:05:32.446Z,10.53
2023-03-26T19:08:03.653Z,10.48
2023-03-26T19:10:33.222Z,10.40
2023-03-26T19:13:02.527Z,10.37
2023-03-26T19:15:32.767Z,10.35
2023-03-26T19:18:12.429Z,10.31
2023-03-26T19:20:45.368Z,10.27
2023-03-26T19:23:15.291Z,10.26
2023-03-26T19:25:50.944Z,10.23
2023-03-26T19:28:31.202Z,10.19
2023-03-26T19:31:19.775Z,10.16
2023-03-26T19:33:54.780Z,10.14
2023-03-26T19:36:29.740Z,10.11
2023-03-26T19:39:00.862Z,10.07
2023-03-26T19:41:36.558Z,10.03
2023-03-26T19:44:24.352Z,10.00
2023-03-26T19:46:53.878Z,9.95
2023-03-26T19:49:28.325Z,9.89
2023-03-26T19:52:04.229Z,9.83
2023-03-26T19:54:32.199Z,9.73
2023-03-26T19:57:01.136Z,9.66
2023-03-26T19:59:29.571Z,9.61
2023-03-26T20:01:57.566Z,9.56
2023-03-26T20:04:26.023Z,9.50
2023-03-26T20:06:53.891Z,9.43
2023-03-26T20:09:22.170Z,9.39
2023-03-26T20:11:52.702Z,9.34
2023-03-26T20:14:26.269Z,9.28
2023-03-26T20:16:55.045Z,9.19
2023-03-26T20:19:23.874Z,9.10
2023-03-26T20:21:52.971Z,9.03
2023-03-26T20:24:21.716Z,8.99
2023-03-26T20:26:49.626Z,8.92
2023-03-26T20:29:17.797Z,8.85
2023-03-26T20:31:46.305Z,8.80
2023-03-26T20:34:19.079Z,8.76
2023-03-26T20:36:47.559Z,8.70
2023-03-26T20:39:15.517Z,8.64
2023-03-26T20:41:45.728Z,8.55
2023-03-26T20:44:15.772Z,8.48
2023-03-26T20:46:44.659Z,8.37
2023-03-26T20:49:15.101Z,8.31
2023-03-26T20:51:45.067Z,8.25
2023-03-26T20:54:15.935Z,8.19
2023-03-26T20:56:44.200Z,8.14
2023-03-26T20:59:14.865Z,8.11
2023-03-26T21:01:43.032Z,8.07
2023-03-26T21:04:11.797Z,8.04
2023-03-26T21:06:39.967Z,7.98
2023-03-26T21:09:09.663Z,7.90
2023-03-26T21:11:50.139Z,7.85
2023-03-26T21:14:18.110Z,7.82
2023-03-26T21:16:46.533Z,7.75
2023-03-26T21:19:14.777Z,7.69
2023-03-26T21:21:52.981Z,7.63
2023-03-26T21:24:47.406Z,7.58
2023-03-26T21:27:22.936Z,7.54
2023-03-26T21:29:52.834Z,7.52
2023-03-26T21:32:21.643Z,7.45
2023-03-26T21:34:58.689Z,7.40
2023-03-26T21:37:27.746Z,7.36
2023-03-26T21:39:56.071Z,7.34
2023-03-26T21:42:27.101Z,7.29
2023-03-26T21:44:56.220Z,7.19
2023-03-26T21:47:24.314Z,7.17
2023-03-26T21:49:52.659Z,7.10
2023-03-26T21:52:22.668Z,7.04
2023-03-26T21:54:51.253Z,6.95
2023-03-26T21:57:29.365Z,6.85
2023-03-26T22:00:16.390Z,6.78
2023-03-26T22:02:47.158Z,6.75
2023-03-26T22:05:27.332Z,6.70
2023-03-26T22:08:03.163Z,6.64
2023-03-26T22:10:32.153Z,6.62
2023-03-26T22:13:00.190Z,6.58
2023-03-26T22:15:30.831Z,6.54
2023-03-26T22:18:03.361Z,6.52
2023-03-26T22:20:31.477Z,6.51
2023-03-26T22:23:01.196Z,6.49
2023-03-26T22:25:29.276Z,6.44
2023-03-26T22:27:57.680Z,6.40
2023-03-26T22:30:25.913Z,6.37
2023-03-26T22:32:54.128Z,6.31
2023-03-26T22:35:22.274Z,6.26
2023-03-26T22:37:50.527Z,6.21
2023-03-26T22:40:18.619Z,6.18
2023-03-26T22:42:46.576Z,6.14
2023-03-26T22:45:14.546Z,6.11
2023-03-26T22:47:42.622Z,6.06
2023-03-26T22:50:10.889Z,6.02
2023-03-26T22:52:40.819Z,5.98
2023-03-26T22:55:09.085Z,5.97
2023-03-26T22:57:37.268Z,5.92
2023-03-26T23:00:16.392Z,5.88
2023-03-26T23:02:48.095Z,5.83
2023-03-26T23:05:18.736Z,5.74
2023-03-26T23:07:47.366Z,5.64
2023-03-26T23:10:15.442Z,5.55
2023-03-26T23:12:43.402Z,5.49
2023-03-26T23:15:11.728Z,5.44
2023-03-26T23:17:39.815Z,5.36
2023-03-26T23:20:17.241Z,5.33
2023-03-26T23:22:45.937Z,5.34
2023-03-26T23:25:13.907Z,5.34
2023-03-26T23:27:42.072Z,5.34
2023-03-26T23:30:11.190Z,5.34
2023-03-26T23:32:39.336Z,5.33
2023-03-26T23:35:07.567Z,5.31
2023-03-26T23:37:35.485Z,5.30
2023-03-26T23:40:09.618Z,5.28
2023-03-26T23:42:38.297Z,5.27
2023-03-26T23:45:06.679Z,5.24
2023-03-26T23:47:35.147Z,5.23
2023-03-26T23:50:04.254Z,5.22
2023-03-26T23:52:32.329Z,5.19
2023-03-26T23:55:01.415Z,5.15
2023-03-26T23:57:30.688Z,5.14
2023-03-26T23:59:58.698Z,5.13
